sensor_id;sensor_type;location;lat;lon;timestamp;temperature;humidity
22416;DHT22;12204;50.600;4.608;2022-08-03T00:00:59;27.70;59.70
22416;DHT22;12204;50.600;4.608;2022-08-03T00:06:07;27.70;59.90
22416;DHT22;12204;50.600;4.608;2022-08-03T00:11:17;27.70;59.70
22416;DHT22;12204;50.600;4.608;2022-08-03T00:16:30;27.70;59.50
22416;DHT22;12204;50.600;4.608;2022-08-03T00:21:38;27.60;59.30
22416;DHT22;12204;50.600;4.608;2022-08-03T00:26:53;27.60;59.20
22416;DHT22;12204;50.600;4.608;2022-08-03T00:31:58;27.60;59.20
22416;DHT22;12204;50.600;4.608;2022-08-03T00:37:04;27.60;59.20
22416;DHT22;12204;50.600;4.608;2022-08-03T00:42:09;27.60;59.10
22416;DHT22;12204;50.600;4.608;2022-08-03T00:47:12;27.60;59.50
22416;DHT22;12204;50.600;4.608;2022-08-03T00:52:16;27.60;61.20
22416;DHT22;12204;50.600;4.608;2022-08-03T00:57:22;27.60;60.40
22416;DHT22;12204;50.600;4.608;2022-08-03T01:02:26;27.60;60.00
22416;DHT22;12204;50.600;4.608;2022-08-03T01:07:40;27.60;60.10
22416;DHT22;12204;50.600;4.608;2022-08-03T01:12:58;27.60;60.30
22416;DHT22;12204;50.600;4.608;2022-08-03T01:18:11;27.60;61.60
22416;DHT22;12204;50.600;4.608;2022-08-03T01:23:45;27.60;60.80
22416;DHT22;12204;50.600;4.608;2022-08-03T01:29:07;27.60;60.70
22416;DHT22;12204;50.600;4.608;2022-08-03T01:34:44;27.60;60.70
22416;DHT22;12204;50.600;4.608;2022-08-03T01:39:55;27.60;60.60
22416;DHT22;12204;50.600;4.608;2022-08-03T01:45:03;27.60;60.60
22416;DHT22;12204;50.600;4.608;2022-08-03T01:50:10;27.60;60.70
22416;DHT22;12204;50.600;4.608;2022-08-03T01:55:16;27.60;60.60
22416;DHT22;12204;50.600;4.608;2022-08-03T02:00:23;27.60;60.50
22416;DHT22;12204;50.600;4.608;2022-08-03T02:05:28;27.60;60.70
22416;DHT22;12204;50.600;4.608;2022-08-03T02:10:35;27.60;60.50
22416;DHT22;12204;50.600;4.608;2022-08-03T02:15:42;27.60;60.60
22416;DHT22;12204;50.600;4.608;2022-08-03T02:20:46;27.60;60.50
22416;DHT22;12204;50.600;4.608;2022-08-03T02:25:53;27.60;60.40
22416;DHT22;12204;50.600;4.608;2022-08-03T02:31:06;27.60;61.40
22416;DHT22;12204;50.600;4.608;2022-08-03T02:36:19;27.60;60.80
22416;DHT22;12204;50.600;4.608;2022-08-03T02:41:30;27.60;60.60
22416;DHT22;12204;50.600;4.608;2022-08-03T02:46:41;27.60;60.60
22416;DHT22;12204;50.600;4.608;2022-08-03T02:51:48;27.60;60.70
22416;DHT22;12204;50.600;4.608;2022-08-03T02:56:55;27.60;60.80
22416;DHT22;12204;50.600;4.608;2022-08-03T03:02:01;27.60;60.70
22416;DHT22;12204;50.600;4.608;2022-08-03T03:07:06;27.60;60.40
22416;DHT22;12204;50.600;4.608;2022-08-03T03:12:11;27.60;60.50
22416;DHT22;12204;50.600;4.608;2022-08-03T03:17:19;27.60;60.50
22416;DHT22;12204;50.600;4.608;2022-08-03T03:22:23;27.50;60.40
22416;DHT22;12204;50.600;4.608;2022-08-03T03:27:27;27.50;60.20
22416;DHT22;12204;50.600;4.608;2022-08-03T03:32:34;27.50;60.30
22416;DHT22;12204;50.600;4.608;2022-08-03T03:37:40;27.50;60.30
22416;DHT22;12204;50.600;4.608;2022-08-03T03:42:44;27.50;60.20
22416;DHT22;12204;50.600;4.608;2022-08-03T03:47:49;27.50;60.20
22416;DHT22;12204;50.600;4.608;2022-08-03T03:52:53;27.50;60.20
22416;DHT22;12204;50.600;4.608;2022-08-03T03:57:57;27.50;60.20
22416;DHT22;12204;50.600;4.608;2022-08-03T04:03:03;27.50;60.20
22416;DHT22;12204;50.600;4.608;2022-08-03T04:08:09;27.50;60.10
22416;DHT22;12204;50.600;4.608;2022-08-03T04:13:48;27.40;60.10
22416;DHT22;12204;50.600;4.608;2022-08-03T04:19:00;27.50;60.20
22416;DHT22;12204;50.600;4.608;2022-08-03T04:24:09;27.50;60.10
22416;DHT22;12204;50.600;4.608;2022-08-03T04:29:13;27.50;60.00
22416;DHT22;12204;50.600;4.608;2022-08-03T04:34:19;27.50;60.20
22416;DHT22;12204;50.600;4.608;2022-08-03T04:39:24;27.50;60.20
22416;DHT22;12204;50.600;4.608;2022-08-03T04:44:30;27.40;60.00
22416;DHT22;12204;50.600;4.608;2022-08-03T04:49:40;27.40;60.00
22416;DHT22;12204;50.600;4.608;2022-08-03T04:54:45;27.40;60.10
22416;DHT22;12204;50.600;4.608;2022-08-03T04:59:52;27.40;60.00
22416;DHT22;12204;50.600;4.608;2022-08-03T05:05:06;27.40;60.00
22416;DHT22;12204;50.600;4.608;2022-08-03T05:10:12;27.40;60.00
22416;DHT22;12204;50.600;4.608;2022-08-03T05:15:17;27.40;60.20
22416;DHT22;12204;50.600;4.608;2022-08-03T05:20:22;27.40;60.20
22416;DHT22;12204;50.600;4.608;2022-08-03T05:25:26;27.40;61.00
22416;DHT22;12204;50.600;4.608;2022-08-03T05:30:30;27.40;60.00
22416;DHT22;12204;50.600;4.608;2022-08-03T05:35:37;27.40;60.20
22416;DHT22;12204;50.600;4.608;2022-08-03T05:41:01;27.40;60.10
22416;DHT22;12204;50.600;4.608;2022-08-03T05:46:24;27.40;61.00
22416;DHT22;12204;50.600;4.608;2022-08-03T05:51:29;27.40;60.30
22416;DHT22;12204;50.600;4.608;2022-08-03T05:56:33;27.40;60.30
22416;DHT22;12204;50.600;4.608;2022-08-03T06:01:37;27.40;60.30
22416;DHT22;12204;50.600;4.608;2022-08-03T06:06:42;27.40;60.40
22416;DHT22;12204;50.600;4.608;2022-08-03T06:11:46;27.40;60.40
22416;DHT22;12204;50.600;4.608;2022-08-03T06:16:50;27.40;60.50
22416;DHT22;12204;50.600;4.608;2022-08-03T06:21:55;27.40;60.50
22416;DHT22;12204;50.600;4.608;2022-08-03T06:27:00;27.40;60.60
22416;DHT22;12204;50.600;4.608;2022-08-03T06:32:04;27.40;60.60
22416;DHT22;12204;50.600;4.608;2022-08-03T06:37:09;27.40;60.70
22416;DHT22;12204;50.600;4.608;2022-08-03T06:42:13;27.40;60.80
22416;DHT22;12204;50.600;4.608;2022-08-03T06:47:17;27.40;60.80
22416;DHT22;12204;50.600;4.608;2022-08-03T06:52:22;27.40;60.90
22416;DHT22;12204;50.600;4.608;2022-08-03T06:57:45;27.40;60.90
22416;DHT22;12204;50.600;4.608;2022-08-03T07:02:48;27.40;61.00
22416;DHT22;12204;50.600;4.608;2022-08-03T07:08:00;27.40;60.90
22416;DHT22;12204;50.600;4.608;2022-08-03T07:13:04;27.40;61.00
22416;DHT22;12204;50.600;4.608;2022-08-03T07:18:08;27.40;61.10
22416;DHT22;12204;50.600;4.608;2022-08-03T07:23:13;27.40;61.10
22416;DHT22;12204;50.600;4.608;2022-08-03T07:28:20;27.40;61.10
22416;DHT22;12204;50.600;4.608;2022-08-03T07:33:23;27.40;61.10
22416;DHT22;12204;50.600;4.608;2022-08-03T07:38:28;27.40;61.00
22416;DHT22;12204;50.600;4.608;2022-08-03T07:43:32;27.40;61.00
22416;DHT22;12204;50.600;4.608;2022-08-03T07:48:35;27.40;61.00
22416;DHT22;12204;50.600;4.608;2022-08-03T07:53:40;27.40;61.00
22416;DHT22;12204;50.600;4.608;2022-08-03T07:58:48;27.40;60.90
22416;DHT22;12204;50.600;4.608;2022-08-03T08:03:52;27.40;60.70
22416;DHT22;12204;50.600;4.608;2022-08-03T08:08:57;27.40;60.70
22416;DHT22;12204;50.600;4.608;2022-08-03T08:14:03;27.40;60.40
22416;DHT22;12204;50.600;4.608;2022-08-03T08:19:08;27.40;60.40
22416;DHT22;12204;50.600;4.608;2022-08-03T08:24:14;27.40;60.20
22416;DHT22;12204;50.600;4.608;2022-08-03T08:29:20;27.40;60.10
22416;DHT22;12204;50.600;4.608;2022-08-03T08:34:24;27.40;60.30
22416;DHT22;12204;50.600;4.608;2022-08-03T08:39:30;27.40;60.20
22416;DHT22;12204;50.600;4.608;2022-08-03T08:44:33;27.40;60.30
22416;DHT22;12204;50.600;4.608;2022-08-03T08:49:37;27.40;60.20
22416;DHT22;12204;50.600;4.608;2022-08-03T08:55:04;27.40;60.20
22416;DHT22;12204;50.600;4.608;2022-08-03T09:00:10;27.40;60.20
22416;DHT22;12204;50.600;4.608;2022-08-03T09:05:16;27.40;60.20
22416;DHT22;12204;50.600;4.608;2022-08-03T09:10:42;27.40;60.10
22416;DHT22;12204;50.600;4.608;2022-08-03T09:15:46;27.40;60.00
22416;DHT22;12204;50.600;4.608;2022-08-03T09:21:11;27.40;59.90
22416;DHT22;12204;50.600;4.608;2022-08-03T09:26:37;27.40;59.90
22416;DHT22;12204;50.600;4.608;2022-08-03T09:31:41;27.40;59.90
22416;DHT22;12204;50.600;4.608;2022-08-03T09:36:47;27.40;59.90
22416;DHT22;12204;50.600;4.608;2022-08-03T09:42:07;27.40;59.90
22416;DHT22;12204;50.600;4.608;2022-08-03T09:47:16;27.40;59.90
22416;DHT22;12204;50.600;4.608;2022-08-03T09:52:30;27.40;59.80
22416;DHT22;12204;50.600;4.608;2022-08-03T09:57:53;27.40;59.80
22416;DHT22;12204;50.600;4.608;2022-08-03T10:03:09;27.40;59.80
22416;DHT22;12204;50.600;4.608;2022-08-03T10:08:13;27.40;59.80
22416;DHT22;12204;50.600;4.608;2022-08-03T10:13:19;27.40;59.70
22416;DHT22;12204;50.600;4.608;2022-08-03T10:18:24;27.40;59.70
22416;DHT22;12204;50.600;4.608;2022-08-03T10:23:28;27.40;59.60
22416;DHT22;12204;50.600;4.608;2022-08-03T10:28:36;27.50;59.70
22416;DHT22;12204;50.600;4.608;2022-08-03T10:33:46;27.40;59.70
22416;DHT22;12204;50.600;4.608;2022-08-03T10:38:54;27.50;59.70
22416;DHT22;12204;50.600;4.608;2022-08-03T10:44:01;27.50;59.70
22416;DHT22;12204;50.600;4.608;2022-08-03T10:49:07;27.50;59.70
22416;DHT22;12204;50.600;4.608;2022-08-03T10:54:36;27.50;59.70
22416;DHT22;12204;50.600;4.608;2022-08-03T11:00:00;27.50;59.70
22416;DHT22;12204;50.600;4.608;2022-08-03T11:10:29;27.50;59.80
22416;DHT22;12204;50.600;4.608;2022-08-03T11:15:35;27.50;59.70
22416;DHT22;12204;50.600;4.608;2022-08-03T11:20:42;27.50;60.20
22416;DHT22;12204;50.600;4.608;2022-08-03T11:42:41;27.50;59.60
22416;DHT22;12204;50.600;4.608;2022-08-03T11:47:49;27.50;59.70
22416;DHT22;12204;50.600;4.608;2022-08-03T11:52:56;27.50;59.70
22416;DHT22;12204;50.600;4.608;2022-08-03T11:57:59;27.50;59.70
22416;DHT22;12204;50.600;4.608;2022-08-03T12:03:24;27.50;59.70
22416;DHT22;12204;50.600;4.608;2022-08-03T12:08:34;27.50;59.70
22416;DHT22;12204;50.600;4.608;2022-08-03T12:13:38;27.50;59.70
22416;DHT22;12204;50.600;4.608;2022-08-03T12:19:05;27.50;59.70
22416;DHT22;12204;50.600;4.608;2022-08-03T12:24:09;27.50;59.60
22416;DHT22;12204;50.600;4.608;2022-08-03T12:29:16;27.50;59.50
22416;DHT22;12204;50.600;4.608;2022-08-03T12:34:21;27.60;59.70
22416;DHT22;12204;50.600;4.608;2022-08-03T12:39:25;27.60;59.60
22416;DHT22;12204;50.600;4.608;2022-08-03T12:44:33;27.60;59.70
22416;DHT22;12204;50.600;4.608;2022-08-03T12:49:45;27.60;59.70
22416;DHT22;12204;50.600;4.608;2022-08-03T12:54:53;27.60;59.40
22416;DHT22;12204;50.600;4.608;2022-08-03T12:59:58;27.60;59.40
22416;DHT22;12204;50.600;4.608;2022-08-03T13:05:31;27.60;59.40
22416;DHT22;12204;50.600;4.608;2022-08-03T13:10:44;27.60;59.40
22416;DHT22;12204;50.600;4.608;2022-08-03T13:15:47;27.60;59.30
22416;DHT22;12204;50.600;4.608;2022-08-03T13:20:52;27.60;59.40
22416;DHT22;12204;50.600;4.608;2022-08-03T13:25:56;27.60;59.50
22416;DHT22;12204;50.600;4.608;2022-08-03T13:30:59;27.60;59.40
22416;DHT22;12204;50.600;4.608;2022-08-03T13:36:05;27.60;59.50
22416;DHT22;12204;50.600;4.608;2022-08-03T13:41:09;27.60;59.50
22416;DHT22;12204;50.600;4.608;2022-08-03T13:46:16;27.70;59.60
22416;DHT22;12204;50.600;4.608;2022-08-03T13:51:22;27.70;59.60
22416;DHT22;12204;50.600;4.608;2022-08-03T13:56:27;27.60;59.50
22416;DHT22;12204;50.600;4.608;2022-08-03T14:01:32;27.70;59.60
22416;DHT22;12204;50.600;4.608;2022-08-03T14:06:56;27.70;59.50
22416;DHT22;12204;50.600;4.608;2022-08-03T14:12:00;27.70;59.60
22416;DHT22;12204;50.600;4.608;2022-08-03T14:17:09;27.70;59.60
22416;DHT22;12204;50.600;4.608;2022-08-03T14:22:14;27.80;59.60
22416;DHT22;12204;50.600;4.608;2022-08-03T14:27:17;27.80;59.60
22416;DHT22;12204;50.600;4.608;2022-08-03T14:32:21;27.80;59.60
22416;DHT22;12204;50.600;4.608;2022-08-03T14:37:25;27.80;59.30
22416;DHT22;12204;50.600;4.608;2022-08-03T14:42:29;27.80;59.30
22416;DHT22;12204;50.600;4.608;2022-08-03T14:47:32;27.80;59.20
22416;DHT22;12204;50.600;4.608;2022-08-03T14:52:57;27.90;59.10
22416;DHT22;12204;50.600;4.608;2022-08-03T14:58:05;27.90;59.00
22416;DHT22;12204;50.600;4.608;2022-08-03T15:03:22;27.90;59.00
22416;DHT22;12204;50.600;4.608;2022-08-03T15:08:28;27.90;58.80
22416;DHT22;12204;50.600;4.608;2022-08-03T15:13:31;28.00;58.90
22416;DHT22;12204;50.600;4.608;2022-08-03T15:18:35;28.00;58.80
22416;DHT22;12204;50.600;4.608;2022-08-03T15:23:40;28.00;58.80
22416;DHT22;12204;50.600;4.608;2022-08-03T15:28:44;28.00;58.80
22416;DHT22;12204;50.600;4.608;2022-08-03T15:33:47;28.10;58.80
22416;DHT22;12204;50.600;4.608;2022-08-03T15:38:53;28.10;58.70
22416;DHT22;12204;50.600;4.608;2022-08-03T15:43:56;28.10;58.70
22416;DHT22;12204;50.600;4.608;2022-08-03T15:49:00;28.20;58.70
22416;DHT22;12204;50.600;4.608;2022-08-03T15:54:04;28.20;58.70
22416;DHT22;12204;50.600;4.608;2022-08-03T15:59:09;28.20;58.60
22416;DHT22;12204;50.600;4.608;2022-08-03T16:04:14;28.30;58.70
22416;DHT22;12204;50.600;4.608;2022-08-03T16:09:19;28.30;58.60
22416;DHT22;12204;50.600;4.608;2022-08-03T16:14:43;28.30;58.50
22416;DHT22;12204;50.600;4.608;2022-08-03T16:19:54;28.40;58.50
22416;DHT22;12204;50.600;4.608;2022-08-03T16:25:00;28.40;58.50
22416;DHT22;12204;50.600;4.608;2022-08-03T16:30:04;28.50;58.50
22416;DHT22;12204;50.600;4.608;2022-08-03T16:35:10;28.50;58.40
22416;DHT22;12204;50.600;4.608;2022-08-03T16:40:23;28.50;58.40
22416;DHT22;12204;50.600;4.608;2022-08-03T16:45:27;28.50;58.30
22416;DHT22;12204;50.600;4.608;2022-08-03T16:50:30;28.60;58.20
22416;DHT22;12204;50.600;4.608;2022-08-03T16:55:37;28.60;58.10
22416;DHT22;12204;50.600;4.608;2022-08-03T17:00:52;28.70;58.20
22416;DHT22;12204;50.600;4.608;2022-08-03T17:05:57;28.70;58.10
22416;DHT22;12204;50.600;4.608;2022-08-03T17:11:03;28.70;58.10
22416;DHT22;12204;50.600;4.608;2022-08-03T17:16:08;28.80;58.10
22416;DHT22;12204;50.600;4.608;2022-08-03T17:21:16;28.80;58.00
22416;DHT22;12204;50.600;4.608;2022-08-03T17:26:31;28.80;58.00
22416;DHT22;12204;50.600;4.608;2022-08-03T17:31:44;28.90;58.00
22416;DHT22;12204;50.600;4.608;2022-08-03T17:36:50;28.90;57.90
22416;DHT22;12204;50.600;4.608;2022-08-03T17:42:15;28.90;57.90
22416;DHT22;12204;50.600;4.608;2022-08-03T17:47:39;28.90;57.80
22416;DHT22;12204;50.600;4.608;2022-08-03T17:53:04;28.90;57.90
22416;DHT22;12204;50.600;4.608;2022-08-03T17:58:19;28.90;57.90
22416;DHT22;12204;50.600;4.608;2022-08-03T18:03:31;28.90;58.00
22416;DHT22;12204;50.600;4.608;2022-08-03T18:08:59;28.90;58.10
22416;DHT22;12204;50.600;4.608;2022-08-03T18:14:26;28.90;58.10
22416;DHT22;12204;50.600;4.608;2022-08-03T18:19:39;28.90;58.20
22416;DHT22;12204;50.600;4.608;2022-08-03T18:25:02;28.90;58.20
22416;DHT22;12204;50.600;4.608;2022-08-03T18:30:10;28.80;58.20
22416;DHT22;12204;50.600;4.608;2022-08-03T18:35:16;28.90;58.30
22416;DHT22;12204;50.600;4.608;2022-08-03T18:40:26;28.90;58.50
22416;DHT22;12204;50.600;4.608;2022-08-03T18:45:32;28.80;58.40
22416;DHT22;12204;50.600;4.608;2022-08-03T18:50:59;28.80;58.50
22416;DHT22;12204;50.600;4.608;2022-08-03T18:56:08;28.80;58.50
22416;DHT22;12204;50.600;4.608;2022-08-03T19:01:25;28.80;58.60
22416;DHT22;12204;50.600;4.608;2022-08-03T19:07:00;28.80;58.60
22416;DHT22;12204;50.600;4.608;2022-08-03T19:12:09;28.80;58.70
22416;DHT22;12204;50.600;4.608;2022-08-03T19:17:35;28.80;58.80
22416;DHT22;12204;50.600;4.608;2022-08-03T19:22:51;28.80;59.50
22416;DHT22;12204;50.600;4.608;2022-08-03T19:27:57;28.80;58.90
22416;DHT22;12204;50.600;4.608;2022-08-03T19:33:06;28.80;59.00
22416;DHT22;12204;50.600;4.608;2022-08-03T19:38:11;28.80;59.10
22416;DHT22;12204;50.600;4.608;2022-08-03T19:43:32;28.80;59.10
22416;DHT22;12204;50.600;4.608;2022-08-03T19:48:57;28.70;59.20
22416;DHT22;12204;50.600;4.608;2022-08-03T19:54:03;28.70;59.30
22416;DHT22;12204;50.600;4.608;2022-08-03T19:59:09;28.70;59.90
22416;DHT22;12204;50.600;4.608;2022-08-03T20:04:18;28.70;59.30
22416;DHT22;12204;50.600;4.608;2022-08-03T20:09:23;28.70;59.40
22416;DHT22;12204;50.600;4.608;2022-08-03T20:14:46;28.70;59.40
22416;DHT22;12204;50.600;4.608;2022-08-03T20:19:52;28.70;59.50
22416;DHT22;12204;50.600;4.608;2022-08-03T20:24:57;28.70;59.60
22416;DHT22;12204;50.600;4.608;2022-08-03T20:30:03;28.70;59.60
22416;DHT22;12204;50.600;4.608;2022-08-03T20:35:10;28.70;59.70
22416;DHT22;12204;50.600;4.608;2022-08-03T20:40:14;28.70;59.80
22416;DHT22;12204;50.600;4.608;2022-08-03T20:45:19;28.70;59.80
22416;DHT22;12204;50.600;4.608;2022-08-03T20:50:44;28.70;59.90
22416;DHT22;12204;50.600;4.608;2022-08-03T20:55:47;28.60;60.00
22416;DHT22;12204;50.600;4.608;2022-08-03T21:01:03;28.70;60.10
22416;DHT22;12204;50.600;4.608;2022-08-03T21:06:08;28.70;60.20
22416;DHT22;12204;50.600;4.608;2022-08-03T21:11:16;28.60;60.20
22416;DHT22;12204;50.600;4.608;2022-08-03T21:16:22;28.70;60.30
22416;DHT22;12204;50.600;4.608;2022-08-03T21:21:29;28.60;60.40
22416;DHT22;12204;50.600;4.608;2022-08-03T21:26:34;28.60;60.40
22416;DHT22;12204;50.600;4.608;2022-08-03T21:31:41;28.60;60.50
22416;DHT22;12204;50.600;4.608;2022-08-03T21:36:47;28.60;60.60
22416;DHT22;12204;50.600;4.608;2022-08-03T21:41:51;28.60;60.60
22416;DHT22;12204;50.600;4.608;2022-08-03T21:46:54;28.60;60.60
22416;DHT22;12204;50.600;4.608;2022-08-03T21:52:01;28.60;60.60
22416;DHT22;12204;50.600;4.608;2022-08-03T21:57:10;28.60;60.80
22416;DHT22;12204;50.600;4.608;2022-08-03T22:02:19;28.60;60.80
22416;DHT22;12204;50.600;4.608;2022-08-03T22:07:27;28.60;60.90
22416;DHT22;12204;50.600;4.608;2022-08-03T22:12:32;28.60;60.90
22416;DHT22;12204;50.600;4.608;2022-08-03T22:17:38;28.60;61.00
22416;DHT22;12204;50.600;4.608;2022-08-03T22:22:59;28.60;61.00
22416;DHT22;12204;50.600;4.608;2022-08-03T22:28:09;28.60;61.00
22416;DHT22;12204;50.600;4.608;2022-08-03T22:33:14;28.60;61.10
22416;DHT22;12204;50.600;4.608;2022-08-03T22:38:19;28.60;61.00
22416;DHT22;12204;50.600;4.608;2022-08-03T22:43:24;28.60;61.00
22416;DHT22;12204;50.600;4.608;2022-08-03T22:48:30;28.60;61.00
22416;DHT22;12204;50.600;4.608;2022-08-03T22:53:39;28.60;61.10
22416;DHT22;12204;50.600;4.608;2022-08-03T22:58:42;28.50;61.00
22416;DHT22;12204;50.600;4.608;2022-08-03T23:03:48;28.60;61.20
22416;DHT22;12204;50.600;4.608;2022-08-03T23:09:04;28.60;61.20
22416;DHT22;12204;50.600;4.608;2022-08-03T23:14:11;28.60;61.20
22416;DHT22;12204;50.600;4.608;2022-08-03T23:19:18;28.50;61.00
22416;DHT22;12204;50.600;4.608;2022-08-03T23:24:28;28.60;61.20
22416;DHT22;12204;50.600;4.608;2022-08-03T23:29:33;28.60;61.20
22416;DHT22;12204;50.600;4.608;2022-08-03T23:34:37;28.50;61.20
22416;DHT22;12204;50.600;4.608;2022-08-03T23:40:00;28.60;61.20
22416;DHT22;12204;50.600;4.608;2022-08-03T23:45:05;28.50;61.10
22416;DHT22;12204;50.600;4.608;2022-08-03T23:50:11;28.50;61.10
22416;DHT22;12204;50.600;4.608;2022-08-03T23:55:18;28.60;61.20
